Time;durP1;ratioP1;P1;durP2;ratioP2;P2;SDS_P1;SDS_P2;PMS_P1;PMS_P2;Temp;Humidity;BMP_temperature;BMP_pressure;BME280_temperature;BME280_humidity;BME280_pressure;Samples;Min_cycle;Max_cycle;Signal;HPM_P1;HPM_P2
2022/10/16 00:00:50;;;;;;;7.13;1.70;;;13.50;81.40;;;;;;4951051;28;20106;-81
2022/10/16 00:03:17;;;;;;;7.38;1.90;;;13.50;81.20;;;;;;4950140;28;21107;-82
2022/10/16 00:05:45;;;;;;;8.18;1.60;;;13.50;81.20;;;;;;4949737;28;20052;-82
2022/10/16 00:08:12;;;;;;;7.33;1.67;;;13.50;81.20;;;;;;4955567;28;20138;-81
2022/10/16 00:10:41;;;;;;;6.70;1.70;;;13.50;81.30;;;;;;4966662;28;124853;-81
2022/10/16 00:13:08;;;;;;;5.72;1.50;;;13.50;81.20;;;;;;4951268;28;20139;-81
2022/10/16 00:15:37;;;;;;;6.15;1.63;;;13.50;81.30;;;;;;4955502;28;20055;-81
2022/10/16 00:18:04;;;;;;;5.75;1.60;;;13.50;81.30;;;;;;4970123;28;20070;-81
2022/10/16 00:20:33;;;;;;;5.93;1.53;;;13.50;81.20;;;;;;4970000;28;20474;-81
2022/10/16 00:23:00;;;;;;;5.22;1.70;;;13.50;81.20;;;;;;4970554;28;20263;-81
2022/10/16 00:25:27;;;;;;;4.82;1.52;;;13.50;81.20;;;;;;4946190;28;20163;-81
2022/10/16 00:27:56;;;;;;;5.30;1.20;;;13.50;81.20;;;;;;4950691;28;20130;-81
2022/10/16 00:30:48;;;;;;;5.85;1.50;;;13.50;81.10;;;;;;4953627;28;20127;-81
2022/10/16 00:33:15;;;;;;;4.53;1.10;;;13.50;81.10;;;;;;4951102;28;20060;-81
2022/10/16 00:35:43;;;;;;;5.13;1.27;;;13.50;81.10;;;;;;4966217;28;20330;-81
2022/10/16 00:38:10;;;;;;;7.72;1.60;;;13.50;81.10;;;;;;4986448;28;20051;-81
2022/10/16 00:40:38;;;;;;;4.57;1.40;;;13.50;81.10;;;;;;4969465;28;20856;-81
2022/10/16 00:43:14;;;;;;;6.85;1.60;;;13.50;81.00;;;;;;4952231;28;20066;-81
2022/10/16 00:45:41;;;;;;;5.53;1.53;;;13.50;80.90;;;;;;4969809;28;20044;-81
2022/10/16 00:48:13;;;;;;;4.00;1.08;;;13.50;80.90;;;;;;4969802;28;20282;-81
2022/10/16 00:50:43;;;;;;;6.10;1.50;;;13.50;80.90;;;;;;4970831;28;20162;-81
2022/10/16 00:53:10;;;;;;;4.28;1.27;;;13.50;81.00;;;;;;4956416;28;20087;-81
2022/10/16 00:55:38;;;;;;;4.68;1.20;;;13.40;81.10;;;;;;4989750;28;20106;-82
2022/10/16 00:58:05;;;;;;;7.47;1.23;;;13.40;81.20;;;;;;4973170;28;20421;-82
2022/10/16 01:00:33;;;;;;;6.53;1.50;;;13.40;81.10;;;;;;4984715;28;20310;-81
2022/10/16 01:03:02;;;;;;;5.65;1.63;;;13.40;81.20;;;;;;4953917;28;20056;-81
2022/10/16 01:05:40;;;;;;;7.13;1.55;;;13.40;81.20;;;;;;4953784;28;20103;-82
2022/10/16 01:08:16;;;;;;;5.28;1.42;;;13.30;81.30;;;;;;4963260;28;20082;-81
2022/10/16 01:10:53;;;;;;;5.10;1.60;;;13.40;81.20;;;;;;4972771;28;20142;-81
2022/10/16 01:13:25;;;;;;;6.82;1.60;;;13.30;81.30;;;;;;4974226;28;20391;-81
2022/10/16 01:16:00;;;;;;;6.38;1.50;;;13.30;81.30;;;;;;4972239;28;20462;-81
2022/10/16 01:18:55;;;;;;;6.30;1.38;;;13.30;81.40;;;;;;4954531;28;20151;-81
2022/10/16 01:21:26;;;;;;;5.07;1.50;;;13.30;81.20;;;;;;4969682;28;20671;-81
2022/10/16 01:24:02;;;;;;;6.00;1.50;;;13.30;81.20;;;;;;4960015;28;20090;-81
2022/10/16 01:26:40;;;;;;;4.47;1.40;;;13.30;81.20;;;;;;4954845;28;20296;-81
2022/10/16 01:29:15;;;;;;;5.90;1.60;;;13.30;81.10;;;;;;4954473;28;20075;-81
2022/10/16 01:31:48;;;;;;;4.53;1.20;;;13.30;81.10;;;;;;4953329;28;20130;-81
2022/10/16 01:34:21;;;;;;;6.03;1.33;;;13.30;81.20;;;;;;4976334;28;20183;-81
2022/10/16 01:36:54;;;;;;;5.33;1.20;;;13.30;81.10;;;;;;4954950;28;20150;-81
2022/10/16 01:39:25;;;;;;;6.57;1.52;;;13.30;80.90;;;;;;4952992;28;20284;-81
2022/10/16 01:41:58;;;;;;;5.35;1.42;;;13.30;80.90;;;;;;4967031;28;20845;-82
2022/10/16 01:44:32;;;;;;;4.60;1.20;;;13.40;80.80;;;;;;4972408;28;20059;-81
2022/10/16 01:47:00;;;;;;;5.95;1.60;;;13.40;80.70;;;;;;4972320;28;20043;-81
2022/10/16 01:49:34;;;;;;;5.07;1.10;;;13.30;80.50;;;;;;4988367;28;20055;-81
2022/10/16 01:52:06;;;;;;;6.45;1.23;;;13.40;80.50;;;;;;4971168;28;20281;-81
2022/10/16 01:54:36;;;;;;;5.25;1.42;;;13.30;80.50;;;;;;4972318;28;20048;-81
2022/10/16 01:57:06;;;;;;;4.80;1.42;;;13.30;80.50;;;;;;4972658;28;20552;-81
2022/10/16 01:59:43;;;;;;;6.85;1.70;;;13.30;80.50;;;;;;4973219;28;20059;-81
2022/10/16 02:02:12;;;;;;;6.37;1.70;;;13.30;80.50;;;;;;4972358;28;20535;-81
2022/10/16 02:04:43;;;;;;;5.60;1.85;;;13.30;80.40;;;;;;4956011;28;20339;-81
2022/10/16 02:07:11;;;;;;;4.75;1.58;;;13.30;80.40;;;;;;4970761;28;20948;-81
2022/10/16 02:09:38;;;;;;;7.45;1.63;;;13.30;80.50;;;;;;4971800;28;20065;-81
2022/10/16 02:12:12;;;;;;;3.70;1.30;;;13.40;80.40;;;;;;4971924;28;20130;-81
2022/10/16 02:14:40;;;;;;;5.03;1.53;;;13.30;80.40;;;;;;4971943;28;20562;-81
2022/10/16 02:17:12;;;;;;;6.68;1.98;;;13.30;80.40;;;;;;4984964;28;20253;-81
2022/10/16 02:19:41;;;;;;;7.90;1.80;;;13.30;80.30;;;;;;4952067;28;20063;-81
2022/10/16 02:22:11;;;;;;;6.70;1.60;;;13.30;80.20;;;;;;4953896;28;20135;-81
2022/10/16 02:24:46;;;;;;;4.90;1.70;;;13.30;80.30;;;;;;4970701;28;20053;-81
2022/10/16 02:27:18;;;;;;;5.10;1.80;;;13.30;80.50;;;;;;4988175;28;20598;-81
2022/10/16 02:29:53;;;;;;;4.55;1.90;;;13.30;80.50;;;;;;4971848;28;20275;-81
2022/10/16 02:32:23;;;;;;;4.80;1.50;;;13.30;80.50;;;;;;4971843;28;20131;-81
2022/10/16 02:34:52;;;;;;;5.55;1.70;;;13.30;80.50;;;;;;4971842;28;20055;-81
2022/10/16 02:37:20;;;;;;;4.65;1.63;;;13.30;80.50;;;;;;4973122;28;20058;-81
2022/10/16 02:39:47;;;;;;;4.83;1.77;;;13.30;80.60;;;;;;4971307;28;20059;-81
2022/10/16 02:42:15;;;;;;;4.13;1.60;;;13.30;80.80;;;;;;4970610;28;20251;-81
2022/10/16 02:44:42;;;;;;;4.63;1.60;;;13.30;80.70;;;;;;4971653;28;20051;-81
2022/10/16 02:47:12;;;;;;;4.13;1.65;;;13.30;80.70;;;;;;4962432;28;20048;-81
2022/10/16 02:49:39;;;;;;;5.47;1.70;;;13.30;80.70;;;;;;4953484;28;20067;-81
2022/10/16 02:52:06;;;;;;;4.90;1.73;;;13.30;80.70;;;;;;4969375;28;20056;-82
2022/10/16 02:54:33;;;;;;;4.28;1.75;;;13.30;80.70;;;;;;4973001;28;20293;-81
2022/10/16 02:57:00;;;;;;;4.97;1.80;;;13.40;80.70;;;;;;4971605;28;20058;-81
2022/10/16 02:59:27;;;;;;;6.15;1.80;;;13.40;80.70;;;;;;4988366;28;20526;-81
2022/10/16 03:01:54;;;;;;;5.47;1.55;;;13.40;80.70;;;;;;4971795;28;20082;-81
2022/10/16 03:04:23;;;;;;;6.30;2.10;;;13.40;80.80;;;;;;4987343;28;20051;-82
2022/10/16 03:06:50;;;;;;;5.80;1.65;;;13.40;80.80;;;;;;4968243;28;20263;-81
2022/10/16 03:09:17;;;;;;;6.30;1.70;;;13.40;80.80;;;;;;4987039;28;20505;-82
2022/10/16 03:11:44;;;;;;;3.78;1.65;;;13.40;80.70;;;;;;4967065;28;20059;-81
2022/10/16 03:14:11;;;;;;;7.22;1.70;;;13.50;80.60;;;;;;4951571;28;20051;-81
2022/10/16 03:16:38;;;;;;;6.23;1.90;;;13.50;80.70;;;;;;4962813;28;20063;-81
2022/10/16 03:19:05;;;;;;;6.70;1.60;;;13.50;80.70;;;;;;4954583;28;20792;-81
2022/10/16 03:21:34;;;;;;;5.85;1.75;;;13.50;80.70;;;;;;4959869;28;20054;-81
2022/10/16 03:24:01;;;;;;;5.65;1.70;;;13.50;80.80;;;;;;4961577;28;20418;-82
2022/10/16 03:26:28;;;;;;;5.57;1.75;;;13.50;80.90;;;;;;4972588;28;20051;-82
2022/10/16 03:28:55;;;;;;;4.03;1.73;;;13.50;80.90;;;;;;4969122;28;20059;-81
2022/10/16 03:31:22;;;;;;;5.22;1.67;;;13.50;80.90;;;;;;4968059;28;20819;-81
2022/10/16 03:33:49;;;;;;;4.68;1.90;;;13.50;80.90;;;;;;4969111;28;20055;-81
2022/10/16 03:36:17;;;;;;;5.97;1.80;;;13.50;80.90;;;;;;4952156;28;21053;-81
2022/10/16 03:38:45;;;;;;;6.18;1.80;;;13.50;80.90;;;;;;4951427;28;20527;-81
2022/10/16 03:41:12;;;;;;;5.70;1.80;;;13.50;80.90;;;;;;4952239;28;20055;-81
2022/10/16 03:43:39;;;;;;;5.07;1.60;;;13.50;81.00;;;;;;4970707;28;20357;-81
2022/10/16 03:46:06;;;;;;;6.28;1.73;;;13.50;81.10;;;;;;4953845;28;20130;-81
2022/10/16 03:48:33;;;;;;;6.32;1.90;;;13.50;81.20;;;;;;4950660;28;20056;-81
2022/10/16 03:51:00;;;;;;;4.93;1.67;;;13.50;81.20;;;;;;4963922;28;20054;-82
2022/10/16 03:53:27;;;;;;;4.70;2.13;;;13.50;81.20;;;;;;4970212;28;20078;-81
2022/10/16 03:55:56;;;;;;;7.40;1.80;;;13.50;81.20;;;;;;4956104;28;20856;-81
2022/10/16 03:58:24;;;;;;;5.38;1.80;;;13.50;81.30;;;;;;4961128;28;20051;-81
2022/10/16 04:00:51;;;;;;;5.82;1.85;;;13.50;81.30;;;;;;4969416;28;20053;-81
2022/10/16 04:03:18;;;;;;;8.10;2.03;;;13.50;81.40;;;;;;4986231;28;20573;-81
2022/10/16 04:05:45;;;;;;;6.23;1.80;;;13.50;81.50;;;;;;4958529;28;20515;-81
2022/10/16 04:08:13;;;;;;;7.82;2.30;;;13.50;81.50;;;;;;4964249;28;20277;-81
2022/10/16 04:10:40;;;;;;;5.03;1.80;;;13.50;81.50;;;;;;4958254;28;20098;-81
2022/10/16 04:13:08;;;;;;;5.43;2.10;;;13.50;81.60;;;;;;4950632;28;20056;-81
2022/10/16 04:15:35;;;;;;;4.35;1.85;;;13.50;81.60;;;;;;4959966;28;20828;-81
2022/10/16 04:18:02;;;;;;;5.60;2.00;;;13.40;81.60;;;;;;4969714;28;20048;-81
2022/10/16 04:20:29;;;;;;;6.97;2.38;;;13.40;81.70;;;;;;4969007;28;20259;-81
2022/10/16 04:22:56;;;;;;;4.45;1.80;;;13.40;81.80;;;;;;4986235;28;20059;-81
2022/10/16 04:25:24;;;;;;;4.72;1.98;;;13.40;81.90;;;;;;4968712;28;20143;-82
2022/10/16 04:27:53;;;;;;;4.05;1.73;;;13.30;82.00;;;;;;4972269;28;20138;-81
2022/10/16 04:30:22;;;;;;;7.13;2.30;;;13.40;82.00;;;;;;4972698;28;20127;-81
2022/10/16 04:32:49;;;;;;;6.65;2.40;;;13.40;82.10;;;;;;4973388;28;20259;-81
2022/10/16 04:35:17;;;;;;;5.88;2.20;;;13.40;82.20;;;;;;4972978;28;20473;-81
2022/10/16 04:37:44;;;;;;;7.18;2.53;;;13.30;82.20;;;;;;4972742;28;20469;-81
2022/10/16 04:40:11;;;;;;;5.22;2.13;;;13.30;82.20;;;;;;4956466;28;20047;-81
2022/10/16 04:42:39;;;;;;;7.27;2.20;;;13.30;82.30;;;;;;4988437;28;20142;-81
2022/10/16 04:45:07;;;;;;;5.28;2.58;;;13.30;82.40;;;;;;4960075;28;20352;-81
2022/10/16 04:47:36;;;;;;;6.72;2.42;;;13.30;82.40;;;;;;4953333;28;20502;-81
2022/10/16 04:50:03;;;;;;;4.45;2.30;;;13.30;82.50;;;;;;4960276;28;20051;-81
2022/10/16 04:52:31;;;;;;;6.97;2.50;;;13.30;82.60;;;;;;4955071;28;20055;-81
2022/10/16 04:55:01;;;;;;;6.90;2.77;;;13.30;82.70;;;;;;4964642;28;20043;-81
2022/10/16 04:57:28;;;;;;;6.05;2.50;;;13.30;82.90;;;;;;4972301;28;20832;-82
2022/10/16 04:59:56;;;;;;;5.30;2.20;;;13.30;82.90;;;;;;4972079;28;20090;-81
2022/10/16 05:02:23;;;;;;;6.25;2.20;;;13.30;82.90;;;;;;4972735;28;20664;-82
2022/10/16 05:04:52;;;;;;;5.05;2.20;;;13.30;83.00;;;;;;4954028;28;20055;-81
2022/10/16 05:07:19;;;;;;;5.43;2.23;;;13.30;83.00;;;;;;4952756;28;20066;-81
2022/10/16 05:09:46;;;;;;;5.57;2.25;;;13.30;83.10;;;;;;4954176;28;20382;-82
2022/10/16 05:12:13;;;;;;;6.03;2.65;;;13.30;83.20;;;;;;4953290;28;20052;-81
2022/10/16 05:14:40;;;;;;;5.28;2.40;;;13.30;83.30;;;;;;4954510;28;20114;-81
2022/10/16 05:17:07;;;;;;;7.60;2.60;;;13.30;83.40;;;;;;4970003;28;20051;-81
2022/10/16 05:19:34;;;;;;;5.93;2.83;;;13.30;83.40;;;;;;4956664;28;20150;-82
2022/10/16 05:22:03;;;;;;;6.78;2.50;;;13.30;83.50;;;;;;4952802;28;20260;-81
2022/10/16 05:24:30;;;;;;;6.07;2.42;;;13.30;83.40;;;;;;4952928;28;20135;-81
2022/10/16 05:26:57;;;;;;;7.78;2.40;;;13.30;83.50;;;;;;4969514;28;20170;-81
2022/10/16 05:29:24;;;;;;;5.35;2.60;;;13.30;83.50;;;;;;4971887;28;20047;-81
2022/10/16 05:31:53;;;;;;;6.43;2.60;;;13.30;83.50;;;;;;4988709;28;20161;-81
2022/10/16 05:34:20;;;;;;;4.68;2.42;;;13.30;83.60;;;;;;4970337;28;21285;-81
2022/10/16 05:36:47;;;;;;;5.03;2.60;;;13.30;83.60;;;;;;4972268;28;20055;-81
2022/10/16 05:39:17;;;;;;;5.35;2.42;;;13.30;83.60;;;;;;4972208;28;20055;-81
2022/10/16 05:41:44;;;;;;;5.35;2.60;;;13.30;83.70;;;;;;4968966;28;20139;-81
2022/10/16 05:44:11;;;;;;;5.53;2.60;;;13.30;83.80;;;;;;4969974;28;20052;-82
2022/10/16 05:46:38;;;;;;;7.07;2.50;;;13.30;83.70;;;;;;4988586;28;20279;-81
2022/10/16 05:49:05;;;;;;;6.15;2.35;;;13.30;83.80;;;;;;4971969;28;20059;-82
2022/10/16 05:51:33;;;;;;;6.07;2.60;;;13.30;83.80;;;;;;4984121;28;20083;-82
2022/10/16 05:54:00;;;;;;;5.85;2.13;;;13.30;83.80;;;;;;4952802;28;20086;-82
2022/10/16 05:56:28;;;;;;;8.10;2.30;;;13.30;83.90;;;;;;4952932;28;20158;-81
2022/10/16 05:58:55;;;;;;;6.05;2.42;;;13.30;84.00;;;;;;4959207;28;20267;-82
2022/10/16 06:01:23;;;;;;;5.63;2.20;;;13.30;84.00;;;;;;4971865;28;20146;-81
2022/10/16 06:03:51;;;;;;;7.85;2.20;;;13.30;84.00;;;;;;4973491;28;20098;-81
2022/10/16 06:06:20;;;;;;;6.25;2.60;;;13.30;84.00;;;;;;4972144;28;20051;-81
2022/10/16 06:08:49;;;;;;;7.27;2.53;;;13.30;84.10;;;;;;4970392;28;20066;-82
2022/10/16 06:11:18;;;;;;;5.22;2.13;;;13.30;84.00;;;;;;4972109;28;20279;-81
2022/10/16 06:13:50;;;;;;;4.32;2.10;;;13.30;84.00;;;;;;4984598;28;20054;-81
2022/10/16 06:16:17;;;;;;;4.55;1.92;;;13.30;84.00;;;;;;4952748;28;21119;-81
2022/10/16 06:18:44;;;;;;;6.00;2.35;;;13.30;84.00;;;;;;4969393;28;20077;-81
2022/10/16 06:21:15;;;;;;;5.40;2.43;;;13.30;84.00;;;;;;4987712;28;20063;-81
2022/10/16 06:23:42;;;;;;;5.28;1.90;;;13.30;84.00;;;;;;4970751;28;20350;-82
2022/10/16 06:26:10;;;;;;;5.15;1.98;;;13.30;84.00;;;;;;4970015;28;20122;-81
2022/10/16 06:28:38;;;;;;;7.20;2.08;;;13.30;84.10;;;;;;4955000;28;20815;-81
2022/10/16 06:31:33;;;;;;;5.32;2.35;;;13.30;84.00;;;;;;4972256;28;20055;-81
2022/10/16 06:34:00;;;;;;;4.43;2.10;;;13.30;84.00;;;;;;4953726;28;20063;-81
2022/10/16 06:36:28;;;;;;;6.07;2.35;;;13.30;83.90;;;;;;4969785;28;20350;-81
2022/10/16 06:38:55;;;;;;;6.35;2.20;;;13.30;84.00;;;;;;4969709;28;20051;-81
2022/10/16 06:41:23;;;;;;;6.18;2.13;;;13.30;84.00;;;;;;4984481;28;20062;-81
2022/10/16 06:43:51;;;;;;;4.70;1.77;;;13.30;84.00;;;;;;4970497;28;20058;-81
2022/10/16 06:46:21;;;;;;;4.93;2.07;;;13.30;84.10;;;;;;4971832;28;20055;-81
2022/10/16 06:48:50;;;;;;;5.63;1.90;;;13.30;84.10;;;;;;4965960;28;20788;-81
2022/10/16 06:51:18;;;;;;;6.28;2.10;;;13.30;84.20;;;;;;4971041;28;20047;-81
2022/10/16 06:53:48;;;;;;;5.28;1.80;;;13.30;84.20;;;;;;4971276;28;20058;-81
2022/10/16 06:56:17;;;;;;;4.45;1.80;;;13.30;84.20;;;;;;4971495;28;20093;-81
2022/10/16 06:58:46;;;;;;;4.70;1.80;;;13.30;84.30;;;;;;4968666;28;20059;-79
2022/10/16 07:01:14;;;;;;;5.60;1.95;;;13.30;84.30;;;;;;4954087;28;20264;-80
2022/10/16 07:03:43;;;;;;;4.95;1.67;;;13.30;84.30;;;;;;4970636;28;20089;-81
2022/10/16 07:06:15;;;;;;;6.05;1.73;;;13.30;84.40;;;;;;4967532;28;20155;-80
2022/10/16 07:08:43;;;;;;;5.93;1.75;;;13.30;84.40;;;;;;4966770;28;20051;-81
2022/10/16 07:11:12;;;;;;;5.63;1.93;;;13.30;84.20;;;;;;4971077;28;20095;-81
2022/10/16 07:13:40;;;;;;;4.90;1.58;;;13.30;84.30;;;;;;4969580;28;20287;-81
2022/10/16 07:16:08;;;;;;;4.55;1.95;;;13.30;84.30;;;;;;4967056;28;20130;-81
2022/10/16 07:18:36;;;;;;;4.55;1.67;;;13.40;84.40;;;;;;4968902;28;20067;-81
2022/10/16 07:21:07;;;;;;;6.57;1.80;;;13.40;84.30;;;;;;4969719;28;20051;-80
2022/10/16 07:23:36;;;;;;;4.90;1.60;;;13.40;84.40;;;;;;4970683;28;20134;-82
2022/10/16 07:26:04;;;;;;;5.38;1.67;;;13.40;84.30;;;;;;4969492;28;20381;-82
2022/10/16 07:28:32;;;;;;;5.97;1.70;;;13.40;84.40;;;;;;4986648;28;20062;-82
2022/10/16 07:31:02;;;;;;;4.95;1.65;;;13.50;84.50;;;;;;4968290;28;20414;-79
2022/10/16 07:33:29;;;;;;;3.97;1.48;;;13.50;84.40;;;;;;4966426;28;20059;-80
2022/10/16 07:35:56;;;;;;;4.37;1.50;;;13.50;84.50;;;;;;4969753;28;20055;-82
2022/10/16 07:38:23;;;;;;;4.90;1.30;;;13.50;84.60;;;;;;4969271;28;20276;-82
2022/10/16 07:40:57;;;;;;;6.85;1.83;;;13.50;84.70;;;;;;4969640;28;20861;-82
2022/10/16 07:43:24;;;;;;;4.82;1.48;;;13.50;84.80;;;;;;4969392;28;20174;-82
2022/10/16 07:45:51;;;;;;;4.63;1.38;;;13.50;84.80;;;;;;4986290;28;20129;-82
2022/10/16 07:48:19;;;;;;;7.60;1.60;;;13.50;84.70;;;;;;4954109;28;20142;-81
2022/10/16 07:50:46;;;;;;;5.53;1.40;;;13.50;84.80;;;;;;4981256;28;20256;-82
2022/10/16 07:53:15;;;;;;;5.78;1.50;;;13.50;84.60;;;;;;4958402;28;20047;-82
2022/10/16 07:55:42;;;;;;;6.10;1.60;;;13.60;84.40;;;;;;4985987;28;20055;-82
2022/10/16 07:58:10;;;;;;;3.67;1.40;;;13.60;84.30;;;;;;4982414;28;20056;-82
2022/10/16 08:00:38;;;;;;;7.70;1.20;;;13.60;84.30;;;;;;4963898;28;20055;-82
2022/10/16 08:03:05;;;;;;;5.65;1.23;;;13.60;84.20;;;;;;4951478;28;20787;-82
2022/10/16 08:05:34;;;;;;;4.97;1.30;;;13.70;84.00;;;;;;4967578;28;20567;-82
2022/10/16 08:08:01;;;;;;;5.80;1.23;;;13.70;83.30;;;;;;4965062;28;20054;-83
2022/10/16 08:10:31;;;;;;;6.05;1.13;;;13.70;83.40;;;;;;4966621;28;20058;-82
2022/10/16 08:12:59;;;;;;;5.77;1.00;;;13.70;83.40;;;;;;4965788;28;20061;-83
2022/10/16 08:15:27;;;;;;;4.32;1.00;;;13.80;82.80;;;;;;4967040;28;20275;-83
2022/10/16 08:17:58;;;;;;;4.72;0.80;;;13.80;82.60;;;;;;4965845;28;20083;-83
2022/10/16 08:20:26;;;;;;;4.68;0.90;;;13.80;82.60;;;;;;4966108;28;20081;-83
2022/10/16 08:22:53;;;;;;;3.35;0.80;;;13.90;82.10;;;;;;4967070;28;20055;-83
2022/10/16 08:25:20;;;;;;;3.87;0.70;;;13.90;81.90;;;;;;4967644;28;20055;-81
2022/10/16 08:27:48;;;;;;;4.18;0.82;;;13.90;82.00;;;;;;4969155;28;20262;-81
2022/10/16 08:30:15;;;;;;;3.28;0.70;;;13.90;81.80;;;;;;4968520;28;20059;-85
2022/10/16 08:32:44;;;;;;;4.30;0.82;;;14.00;81.80;;;;;;4968618;28;20077;-81
2022/10/16 08:35:11;;;;;;;4.20;0.68;;;14.00;81.50;;;;;;4968266;28;20138;-81
2022/10/16 08:37:39;;;;;;;5.03;0.90;;;14.00;81.60;;;;;;4963002;28;20658;-81
2022/10/16 08:40:14;;;;;;;3.08;0.70;;;14.10;81.80;;;;;;4968767;28;20345;-81
2022/10/16 08:42:57;;;;;;;5.18;0.90;;;14.10;82.10;;;;;;4967533;28;20054;-82
2022/10/16 08:45:38;;;;;;;3.53;0.73;;;14.10;82.20;;;;;;4987522;28;20074;-81
2022/10/16 08:48:19;;;;;;;6.75;1.65;;;14.10;82.00;;;;;;4967447;28;20066;-81
2022/10/16 08:50:48;;;;;;;5.77;1.20;;;14.20;81.90;;;;;;4966696;28;20142;-81
2022/10/16 08:53:20;;;;;;;4.60;1.13;;;14.20;81.80;;;;;;4959184;28;20272;-82
2022/10/16 08:55:50;;;;;;;4.75;1.60;;;14.30;81.70;;;;;;4962282;28;20058;-81
2022/10/16 08:58:21;;;;;;;5.93;1.17;;;14.30;81.80;;;;;;4965297;28;20059;-83
2022/10/16 09:00:50;;;;;;;8.68;1.30;;;14.40;81.80;;;;;;4964570;28;20055;-82
2022/10/16 09:03:32;;;;;;;5.70;1.70;;;14.40;81.20;;;;;;4968124;28;20540;-82
2022/10/16 09:06:25;;;;;;;4.85;1.38;;;14.50;80.90;;;;;;4984924;28;20765;-81
2022/10/16 09:09:07;;;;;;;6.72;1.50;;;14.50;81.10;;;;;;4968601;28;20059;-82
2022/10/16 09:11:45;;;;;;;7.25;1.80;;;14.60;80.90;;;;;;4978386;28;20043;-80
2022/10/16 09:14:35;;;;;;;7.45;1.73;;;14.60;80.60;;;;;;4969918;28;20050;-81
2022/10/16 09:17:32;;;;;;;6.47;1.57;;;14.70;80.10;;;;;;4968410;28;20714;-82
2022/10/16 09:20:20;;;;;;;7.28;1.52;;;14.70;79.90;;;;;;4952720;28;20256;-82
2022/10/16 09:22:47;;;;;;;6.25;1.20;;;14.70;79.70;;;;;;4956887;28;20099;-82
2022/10/16 09:25:17;;;;;;;7.53;1.30;;;14.80;79.50;;;;;;4965619;28;20059;-82
2022/10/16 09:27:49;;;;;;;9.55;1.27;;;14.80;79.20;;;;;;4960163;28;20502;-82
2022/10/16 09:33:17;;;;;;;6.88;1.52;;;14.90;79.10;;;;;;4927655;28;20287;-82
2022/10/16 09:35:48;;;;;;;6.28;1.30;;;15.00;78.20;;;;;;4968445;28;20056;-82
2022/10/16 09:38:25;;;;;;;10.20;1.50;;;15.00;78.30;;;;;;4969958;28;20173;-81
2022/10/16 09:40:53;;;;;;;8.00;1.25;;;15.00;78.50;;;;;;4956154;28;20055;-82
2022/10/16 09:43:27;;;;;;;5.83;1.20;;;15.00;77.90;;;;;;4971666;28;20074;-81
2022/10/16 09:45:56;;;;;;;7.63;1.10;;;15.20;77.50;;;;;;4972294;28;20260;-83
2022/10/16 09:48:24;;;;;;;7.90;1.20;;;15.20;77.60;;;;;;4975874;28;20057;-80
2022/10/16 09:51:00;;;;;;;9.20;1.52;;;15.20;77.20;;;;;;4961087;28;20552;-78
2022/10/16 09:53:39;;;;;;;8.85;1.52;;;15.30;77.20;;;;;;4974612;28;20599;-79
2022/10/16 09:56:06;;;;;;;8.33;1.70;;;15.30;77.40;;;;;;4989074;23;20469;-78
2022/10/16 09:58:34;;;;;;;6.25;1.40;;;15.40;75.90;;;;;;5031728;28;20326;-76
2022/10/16 10:01:01;;;;;;;7.00;1.50;;;15.40;76.50;;;;;;5038808;28;20052;-77
2022/10/16 10:03:37;;;;;;;9.30;1.45;;;15.50;76.60;;;;;;5051770;28;20430;-79
2022/10/16 10:06:17;;;;;;;7.43;1.48;;;15.50;76.60;;;;;;5040739;28;20426;-79
2022/10/16 10:08:58;;;;;;;7.23;1.37;;;15.50;76.20;;;;;;5046307;28;20574;-78
2022/10/16 10:11:53;;;;;;;5.93;1.33;;;15.50;76.50;;;;;;5049322;28;21017;-78
2022/10/16 10:14:23;;;;;;;8.38;1.55;;;15.60;76.20;;;;;;5064591;28;20044;-77
2022/10/16 10:16:51;;;;;;;7.30;1.20;;;15.60;76.20;;;;;;5064666;28;20088;-78
2022/10/16 10:19:19;;;;;;;9.30;1.63;;;15.60;75.40;;;;;;5031909;28;20053;-79
2022/10/16 10:21:48;;;;;;;6.40;1.10;;;15.60;75.90;;;;;;5050211;28;20474;-78
2022/10/16 10:24:18;;;;;;;6.65;1.33;;;15.70;75.30;;;;;;5049453;28;20848;-77
2022/10/16 10:26:55;;;;;;;8.15;1.30;;;15.80;75.10;;;;;;5049366;28;20049;-78
2022/10/16 10:29:35;;;;;;;9.60;1.70;;;15.80;74.80;;;;;;5065696;28;20967;-79
2022/10/16 10:32:10;;;;;;;8.82;1.45;;;15.80;74.40;;;;;;5070883;28;20506;-78
2022/10/16 10:34:52;;;;;;;9.40;1.30;;;15.80;75.00;;;;;;5070009;28;20114;-79
2022/10/16 10:37:32;;;;;;;9.57;1.88;;;15.80;75.00;;;;;;5070030;28;20264;-79
2022/10/16 10:40:09;;;;;;;7.72;1.48;;;15.90;74.20;;;;;;5051802;28;20139;-78
2022/10/16 10:42:45;;;;;;;10.30;1.55;;;16.00;74.00;;;;;;5033802;28;20037;-77
2022/10/16 10:45:23;;;;;;;9.80;1.45;;;16.00;74.40;;;;;;5051008;28;20103;-79
2022/10/16 10:48:06;;;;;;;5.80;1.30;;;16.00;74.10;;;;;;5051771;28;20590;-80
2022/10/16 10:50:42;;;;;;;8.45;1.33;;;16.00;74.90;;;;;;5051947;28;20318;-80
2022/10/16 10:53:22;;;;;;;8.05;1.70;;;16.10;73.80;;;;;;5058162;28;20056;-79
2022/10/16 10:55:55;;;;;;;8.48;1.40;;;16.10;73.90;;;;;;5069772;28;20128;-80
2022/10/16 11:01:55;;;;;;;9.70;1.10;;;16.20;72.90;;;;;;4983057;28;20808;-77
2022/10/16 11:04:42;;;;;;;7.50;1.55;;;16.20;72.30;;;;;;4998442;28;20279;-81
2022/10/16 11:07:16;;;;;;;7.85;1.25;;;16.20;70.90;;;;;;4990408;28;20134;-81
2022/10/16 11:09:49;;;;;;;7.53;1.42;;;16.20;71.40;;;;;;4996364;28;20538;-81
2022/10/16 11:12:20;;;;;;;9.10;1.48;;;16.20;70.90;;;;;;4989330;28;20750;-78
2022/10/16 11:14:51;;;;;;;8.63;1.80;;;16.20;71.10;;;;;;4989973;28;20058;-79
2022/10/16 11:17:25;;;;;;;7.53;1.10;;;16.20;70.70;;;;;;4988085;28;20278;-79
2022/10/16 11:19:56;;;;;;;9.68;1.48;;;16.30;70.70;;;;;;4989726;28;20066;-78
2022/10/16 11:22:28;;;;;;;5.78;1.10;;;16.30;70.70;;;;;;4990752;28;20138;-81
2022/10/16 11:25:12;;;;;;;6.15;1.00;;;16.40;70.20;;;;;;4988584;28;20070;-81
2022/10/16 11:27:42;;;;;;;11.43;1.77;;;16.40;69.40;;;;;;4988777;28;20102;-81
2022/10/16 11:30:19;;;;;;;8.88;1.42;;;16.50;68.40;;;;;;4989069;28;20275;-83
2022/10/16 11:33:02;;;;;;;6.18;1.35;;;16.50;67.60;;;;;;4988822;28;20125;-81
2022/10/16 11:35:40;;;;;;;7.30;1.30;;;16.50;68.30;;;;;;4987446;28;20059;-81
2022/10/16 11:38:15;;;;;;;8.48;1.70;;;16.60;67.80;;;;;;4989409;28;20055;-81
2022/10/16 11:40:47;;;;;;;7.03;1.13;;;16.60;67.80;;;;;;4991123;28;20063;-82
2022/10/16 11:43:20;;;;;;;6.25;1.10;;;16.60;68.50;;;;;;4990243;28;20271;-81
2022/10/16 11:45:52;;;;;;;9.82;1.42;;;16.60;68.40;;;;;;4989880;28;20082;-81
2022/10/16 11:48:28;;;;;;;5.75;1.45;;;16.60;69.40;;;;;;4990243;28;20135;-81
2022/10/16 11:50:59;;;;;;;9.40;1.50;;;16.60;68.90;;;;;;4989720;28;20074;-82
2022/10/16 11:53:40;;;;;;;9.77;2.03;;;16.60;68.90;;;;;;4989405;28;20058;-87
2022/10/16 11:56:08;;;;;;;7.18;1.20;;;16.70;68.30;;;;;;4988525;28;20251;-81
2022/10/16 11:58:42;;;;;;;9.13;1.33;;;16.70;68.70;;;;;;4998624;28;20061;-82
2022/10/16 12:01:19;;;;;;;7.18;1.00;;;16.70;69.10;;;;;;4987458;28;20063;-83
2022/10/16 12:03:54;;;;;;;6.00;1.00;;;16.70;69.90;;;;;;4985756;28;20055;-83
2022/10/16 12:06:32;;;;;;;8.60;1.10;;;16.70;69.80;;;;;;4989929;28;20133;-84
2022/10/16 12:09:00;;;;;;;7.70;1.30;;;16.80;68.60;;;;;;4986621;28;20278;-84
2022/10/16 12:11:39;;;;;;;9.02;1.63;;;16.80;68.80;;;;;;4988698;28;20043;-84
2022/10/16 12:14:27;;;;;;;6.82;1.40;;;16.80;67.90;;;;;;4983248;28;20113;-83
2022/10/16 12:16:58;;;;;;;5.63;1.02;;;16.90;66.50;;;;;;4969492;28;20130;-85
2022/10/16 12:19:26;;;;;;;8.73;1.27;;;16.90;65.60;;;;;;4989203;28;20055;-84
2022/10/16 12:21:56;;;;;;;7.72;1.17;;;16.90;65.40;;;;;;4988029;28;20297;-85
2022/10/16 12:24:33;;;;;;;8.30;1.10;;;16.90;66.30;;;;;;4987821;28;20054;-85
2022/10/16 12:27:02;;;;;;;11.10;1.00;;;16.90;66.20;;;;;;4970954;28;20058;-85
2022/10/16 12:29:34;;;;;;;7.47;1.25;;;16.90;66.60;;;;;;4987590;28;20047;-83
2022/10/16 12:32:03;;;;;;;7.33;1.03;;;16.90;66.20;;;;;;4986571;28;20061;-83
2022/10/16 12:34:38;;;;;;;9.65;1.50;;;16.90;66.30;;;;;;4970885;28;20326;-83
2022/10/16 12:37:12;;;;;;;7.72;1.27;;;16.90;66.20;;;;;;4989394;28;20089;-80
2022/10/16 12:39:40;;;;;;;7.80;1.33;;;16.90;67.20;;;;;;4985166;28;20138;-83
2022/10/16 12:42:22;;;;;;;8.38;1.40;;;16.90;66.90;;;;;;4960603;28;20079;-84
2022/10/16 12:44:50;;;;;;;8.83;1.63;;;16.90;67.00;;;;;;4982881;28;20079;-84
2022/10/16 12:47:23;;;;;;;5.78;0.90;;;17.00;67.00;;;;;;4973070;28;20254;-84
2022/10/16 12:49:52;;;;;;;8.13;1.42;;;17.00;66.50;;;;;;4992455;28;20560;-84
2022/10/16 12:52:35;;;;;;;6.60;1.10;;;17.00;66.50;;;;;;4993047;28;20145;-82
2022/10/16 12:55:03;;;;;;;7.80;1.40;;;17.00;66.00;;;;;;4992409;28;20055;-82
2022/10/16 12:58:00;;;;;;;7.27;1.20;;;17.00;65.70;;;;;;4920504;28;20129;-82
2022/10/16 13:00:33;;;;;;;8.20;1.02;;;17.00;66.50;;;;;;4991332;28;20307;-82
2022/10/16 13:03:26;;;;;;;6.70;1.10;;;17.00;66.70;;;;;;5012076;28;20765;-83
2022/10/16 13:06:05;;;;;;;8.18;1.27;;;17.00;65.60;;;;;;5011946;28;20051;-83
2022/10/16 13:08:48;;;;;;;8.30;1.00;;;17.10;65.90;;;;;;4995593;28;20128;-82
2022/10/16 13:11:23;;;;;;;7.47;0.90;;;17.20;65.50;;;;;;4988267;28;20074;-82